createdAt,value
2022-11-17T00:01:39.748Z,100
2022-11-17T00:16:56.723Z,100
2022-11-17T00:32:12.698Z,100
2022-11-17T00:47:28.701Z,100
2022-11-17T01:02:44.732Z,100
2022-11-17T01:18:02.623Z,100
2022-11-17T01:33:18.606Z,100
2022-11-17T01:48:34.619Z,100
2022-11-17T02:03:50.562Z,100
2022-11-17T02:19:08.531Z,100
2022-11-17T02:34:25.526Z,100
2022-11-17T02:49:42.519Z,100
2022-11-17T03:04:58.510Z,100
2022-11-17T03:20:15.491Z,100
2022-11-17T03:35:31.451Z,100
2022-11-17T03:50:47.426Z,100
2022-11-17T04:06:04.412Z,100
2022-11-17T04:21:22.396Z,100
2022-11-17T04:36:39.358Z,100
2022-11-17T04:51:55.330Z,100
2022-11-17T05:07:11.374Z,100
2022-11-17T05:22:28.272Z,100
2022-11-17T05:37:44.298Z,100
2022-11-17T05:53:00.222Z,100
2022-11-17T06:08:17.263Z,100
2022-11-17T06:23:35.374Z,100
2022-11-17T06:38:52.177Z,100
2022-11-17T06:54:08.169Z,100
2022-11-17T07:09:24.183Z,100
2022-11-17T07:24:41.124Z,100
2022-11-17T07:39:57.131Z,100
2022-11-17T07:55:14.057Z,100
2022-11-17T08:10:37.455Z,100
2022-11-17T08:25:48.033Z,100
2022-11-17T08:41:04.028Z,100
2022-11-17T08:56:20.971Z,100
2022-11-17T09:11:38.922Z,100
2022-11-17T09:26:55.922Z,100
2022-11-17T09:42:11.912Z,100
2022-11-17T09:57:27.888Z,100
2022-11-17T10:12:44.839Z,100
2022-11-17T10:28:00.859Z,100
2022-11-17T10:43:17.810Z,100
2022-11-17T10:58:34.800Z,100
2022-11-17T11:13:52.740Z,100
2022-11-17T11:29:09.058Z,100
2022-11-17T11:44:24.707Z,100
2022-11-17T11:59:40.679Z,100
2022-11-17T12:14:57.648Z,100
2022-11-17T12:30:13.609Z,100
2022-11-17T12:45:30.605Z,100
2022-11-17T13:00:47.566Z,99.5
2022-11-17T13:16:04.536Z,98.5
2022-11-17T13:31:20.524Z,100
2022-11-17T13:46:36.465Z,95
2022-11-17T14:01:52.516Z,86
2022-11-17T14:17:09.423Z,99
2022-11-17T14:32:25.381Z,100
2022-11-17T14:47:42.406Z,100
2022-11-17T15:02:59.330Z,100
2022-11-17T15:18:16.337Z,100
2022-11-17T15:33:32.256Z,100
2022-11-17T15:48:48.434Z,100
2022-11-17T16:04:04.352Z,100
2022-11-17T16:19:21.243Z,100
2022-11-17T16:34:38.209Z,99
2022-11-17T16:49:55.177Z,96.5
2022-11-17T17:05:11.147Z,99.5
2022-11-17T17:20:28.129Z,100
2022-11-17T17:35:44.095Z,100
2022-11-17T17:51:00.094Z,87.5
2022-11-17T18:06:16.029Z,84
2022-11-17T18:21:32.995Z,85
2022-11-17T18:36:49.988Z,84.5
2022-11-17T18:52:06.952Z,100
2022-11-17T19:07:22.986Z,100
2022-11-17T19:22:39.868Z,100
2022-11-17T19:37:55.873Z,100
2022-11-17T19:53:11.830Z,100
2022-11-17T20:08:27.840Z,100
2022-11-17T20:23:45.770Z,100
2022-11-17T20:39:02.769Z,100
2022-11-17T20:54:19.731Z,100
2022-11-17T21:09:35.742Z,100
2022-11-17T21:24:52.693Z,100
2022-11-17T21:40:08.717Z,100
2022-11-17T21:55:24.631Z,100
2022-11-17T22:10:41.660Z,100
2022-11-17T22:25:59.600Z,100
2022-11-17T22:41:16.595Z,100
2022-11-17T22:56:32.539Z,100
2022-11-17T23:11:48.550Z,100
2022-11-17T23:27:05.472Z,100
2022-11-17T23:42:21.492Z,100
2022-11-17T23:57:37.452Z,100
